• Bienvenue sur Pilotes Québec!
  • Bienvenue sur le site de Pilotes Québec, la nouvelle communauté des pilotes et aviateurs du Québec.
  • Le Cessna 172 de Patrick Vergobbi (C-FUFD "Le Pique-Nuage"), capté par Jean-Pierre Bonin, lors du RVA chez Mo du 28 février 2015, qui fut cette année un grand succès!  Plus de 95 aéronefs (dont trois hélicos) ont été vus sur place, sans compter plusieurs convives venus par la route.
  • Calendrier des activités
  • sujets récents au forum...
  • Les nouvelles en bref...

Connexion


J'ai oublié mon mot de passe
Renvoyer l'e-mail de confirmation
 

Publicité

Vous aimeriez afficher une publicité pour joindre la communauté des pilotes professionnels et privé du Québec?  Cliquez ici pour en savoir plus!

Conditions actuelles

Click for Quebec, Quebec Forecast

METAR - Québec


2015/04/01 17:00
CYQB 011700Z 26009KT 30SM FEW200 M04/M18 A3001 RMK CI1 CI TR SLP168

TAF - Québec


2015/04/01 18:39
TAF CYQB 011738Z 0118/0218 27012KT P6SM SKC
BECMG 0201/0203 VRB03KT
FM021400 VRB03KT P6SM BKN100
FM021700 11005KT 3SM -SN OVC020
RMK NXT FCST BY 020000Z